TFM - Tactical Decision Aid
ID: Runway Winds: CIG/VIS Threshold:

KCSG - Columbus Arpt, GA, US

Updated at: 0732 UTC 18 Sep 2021
Latest TAF at: 0524 UTC 18 Sep 2021

TAF Board

Time0651Z 18/08Z 18/09Z 18/10Z 18/11Z 18/12Z 18/13Z 18/14Z 18/15Z 18/16Z 18/17Z 18/18Z 18/19Z 18/20Z>>
Type OBS PRVL PRVL PRVL PRVL PRVL PRVL PRVL PRVL PRVL PRVL PRVL
  [PRB30]  
PRVL
  [PRB30]  
PRVL
  [PRB30]  
VIS 10 5 5 3 3 3 3 3 >6 >6 >6 >6
  [3]  
>6
  [3]  
>6
  [3]  
CIG -- 12 12 4 4 4 4 4 25 25 25 50
  [25]  
50
  [25]  
50
  [25]  
Cover FEW BKN BKN BKN BKN BKN BKN BKN BKN BKN BKN BKN
  [BKN]  
BKN
  [BKN]  
BKN
  [BKN]  
FltCat VFR MVFR MVFR LIFR LIFR LIFR LIFR LIFR MVFR MVFR MVFR VFR
  [MVFR]  
VFR
  [MVFR]  
VFR
  [MVFR]  
WX -- BR BR BR VCSH BR VCSH BR VCSH BR VCSH BR VCSH -- -- -- VCSH
  [TSRA]  
VCSH
  [TSRA]  
VCSH
  [TSRA]  
WDir 90 VRB VRB VRB VRB VRB VRB VRB VRB VRB VRB 90
[90]
90
[90]
90
[90]
WSpd 3 0 0 0 0 0 0 0 3 3 3 5
  [5]  
5
  [5]  
5
  [5]  
WGst -- -- -- -- -- -- -- -- -- -- -- --
  [--]  
--
  [--]  
--
  [--]  

TDA Impact Legend

  None Marginal Slight Moderate High
Visibility (sm) >5 2.9≤X≤5 0.9≤X<2.9 <0.9
Ceiling (100 ft) >30 9.9≤X≤30 4.9≤X<9.9 <4.9
Wind Speed (kt) <15 15≤X<25 25≤X<30 ≥30
Wind Gust (kt) <15 15≤X<25 25≤X<35 ≥35
Weather No Wx Reported VCTS -TS,-FZRA TS,FZRA +TS,+FZRA
TAF
KCSG 180524Z 1806/1906 09004KT P6SM BKN080 OVC100
  FM180700 00000KT 5SM BR BKN012 BKN025
  FM181000 00000KT 3SM BR VCSH BKN004
  FM181500 VRB03KT P6SM SCT009 BKN025
  FM181800 09005KT P6SM VCSH SCT025 BKN050
  PROB30 1818/1824 3SM TSRA BKN025CB
  FM190100 07004KT P6SM BKN050


METAR
KCSG 180651Z AUTO 09003KT 10SM FEW023 FEW075 24/22 A3008 RMK AO2 SLP181 T02390217 $
KCSG 180551Z AUTO 00000KT 10SM FEW023 BKN080 24/22 A3009 RMK AO2 SLP184 T02390222 10256 20239 56007 $
KCSG 180451Z AUTO 00000KT 10SM FEW080 SCT100 24/22 A3009 RMK AO2 SLP185 T02390222 402940222 $

Radar Display
Forecast Discussion